sensor_id;sensor_type;location;lat;lon;timestamp;pressure;altitude;pressure_sealevel;temperature;humidity
45937;BME280;31649;46.510;6.498;2022-08-02T00:01:48;97357.97;;;25.57;42.57
45937;BME280;31649;46.510;6.498;2022-08-02T00:04:13;97355.91;;;25.59;42.58
45937;BME280;31649;46.510;6.498;2022-08-02T00:06:39;97356.31;;;25.77;42.32
45937;BME280;31649;46.510;6.498;2022-08-02T00:09:04;97355.06;;;25.66;42.34
45937;BME280;31649;46.510;6.498;2022-08-02T00:11:30;97345.03;;;25.75;42.15
45937;BME280;31649;46.510;6.498;2022-08-02T00:13:56;97357.31;;;25.82;42.20
45937;BME280;31649;46.510;6.498;2022-08-02T00:16:21;97352.41;;;25.79;42.38
45937;BME280;31649;46.510;6.498;2022-08-02T00:18:47;97357.13;;;25.77;42.51
45937;BME280;31649;46.510;6.498;2022-08-02T00:21:13;97362.47;;;25.77;42.88
45937;BME280;31649;46.510;6.498;2022-08-02T00:23:38;97361.00;;;25.68;42.67
45937;BME280;31649;46.510;6.498;2022-08-02T00:26:03;97359.81;;;25.57;42.84
45937;BME280;31649;46.510;6.498;2022-08-02T00:28:29;97361.00;;;25.68;42.78
45937;BME280;31649;46.510;6.498;2022-08-02T00:30:56;97359.00;;;25.56;42.68
45937;BME280;31649;46.510;6.498;2022-08-02T00:33:21;97361.44;;;25.65;42.83
45937;BME280;31649;46.510;6.498;2022-08-02T00:35:46;97360.00;;;25.55;43.15
45937;BME280;31649;46.510;6.498;2022-08-02T00:38:12;97364.94;;;25.45;43.15
45937;BME280;31649;46.510;6.498;2022-08-02T00:40:38;97360.66;;;24.96;43.93
45937;BME280;31649;46.510;6.498;2022-08-02T00:45:36;97363.31;;;25.44;43.48
45937;BME280;31649;46.510;6.498;2022-08-02T00:48:03;97371.72;;;25.41;42.93
45937;BME280;31649;46.510;6.498;2022-08-02T00:50:29;97365.78;;;25.52;43.20
45937;BME280;31649;46.510;6.498;2022-08-02T00:52:55;97371.94;;;25.39;43.20
45937;BME280;31649;46.510;6.498;2022-08-02T00:55:20;97362.66;;;24.67;44.86
45937;BME280;31649;46.510;6.498;2022-08-02T00:57:46;97361.34;;;24.29;45.48
45937;BME280;31649;46.510;6.498;2022-08-02T01:00:11;97359.63;;;24.14;46.06
45937;BME280;31649;46.510;6.498;2022-08-02T01:02:37;97367.47;;;23.87;46.94
45937;BME280;31649;46.510;6.498;2022-08-02T01:05:03;97363.13;;;23.72;47.09
45937;BME280;31649;46.510;6.498;2022-08-02T01:07:29;97371.75;;;23.88;46.78
45937;BME280;31649;46.510;6.498;2022-08-02T01:09:55;97354.44;;;23.99;46.60
45937;BME280;31649;46.510;6.498;2022-08-02T01:12:20;97359.63;;;24.14;46.20
45937;BME280;31649;46.510;6.498;2022-08-02T01:14:50;97359.50;;;23.87;47.31
45937;BME280;31649;46.510;6.498;2022-08-02T01:29:17;97362.66;;;24.60;46.37
45937;BME280;31649;46.510;6.498;2022-08-02T01:31:49;97363.25;;;24.69;46.31
45937;BME280;31649;46.510;6.498;2022-08-02T01:34:23;97368.25;;;24.99;45.57
45937;BME280;31649;46.510;6.498;2022-08-02T01:37:09;97363.13;;;25.11;44.94
45937;BME280;31649;46.510;6.498;2022-08-02T01:39:39;97367.22;;;25.00;44.85
45937;BME280;31649;46.510;6.498;2022-08-02T01:42:06;97358.44;;;25.00;45.27
45937;BME280;31649;46.510;6.498;2022-08-02T01:44:35;97363.34;;;25.03;44.93
45937;BME280;31649;46.510;6.498;2022-08-02T01:47:05;97357.34;;;24.94;44.65
45937;BME280;31649;46.510;6.498;2022-08-02T01:49:33;97362.25;;;24.84;45.29
45937;BME280;31649;46.510;6.498;2022-08-02T01:52:02;97364.25;;;24.48;45.91
45937;BME280;31649;46.510;6.498;2022-08-02T01:54:49;97359.31;;;24.31;46.32
45937;BME280;31649;46.510;6.498;2022-08-02T01:57:17;97360.34;;;24.37;46.13
45937;BME280;31649;46.510;6.498;2022-08-02T01:59:45;97365.00;;;24.28;46.47
45937;BME280;31649;46.510;6.498;2022-08-02T02:02:13;97360.72;;;24.33;46.61
45937;BME280;31649;46.510;6.498;2022-08-02T02:04:39;97368.34;;;24.43;46.21
45937;BME280;31649;46.510;6.498;2022-08-02T02:07:06;97359.38;;;24.72;45.62
45937;BME280;31649;46.510;6.498;2022-08-02T02:09:36;97352.22;;;24.72;45.74
45937;BME280;31649;46.510;6.498;2022-08-02T02:12:02;97351.56;;;24.56;46.14
45937;BME280;31649;46.510;6.498;2022-08-02T02:14:28;97347.47;;;23.91;47.27
45937;BME280;31649;46.510;6.498;2022-08-02T02:16:58;97344.19;;;23.89;47.89
45937;BME280;31649;46.510;6.498;2022-08-02T02:19:25;97347.16;;;24.21;47.09
45937;BME280;31649;46.510;6.498;2022-08-02T02:21:52;97342.72;;;24.35;46.71
45937;BME280;31649;46.510;6.498;2022-08-02T02:24:17;97340.91;;;24.36;46.58
45937;BME280;31649;46.510;6.498;2022-08-02T02:26:43;97342.06;;;23.42;48.59
45937;BME280;31649;46.510;6.498;2022-08-02T02:29:10;97341.63;;;24.09;47.28
45937;BME280;31649;46.510;6.498;2022-08-02T02:31:38;97346.94;;;23.67;47.99
45937;BME280;31649;46.510;6.498;2022-08-02T02:34:09;97347.28;;;23.28;48.91
45937;BME280;31649;46.510;6.498;2022-08-02T02:36:38;97345.88;;;23.61;48.36
45937;BME280;31649;46.510;6.498;2022-08-02T02:39:06;97340.41;;;24.12;47.29
45937;BME280;31649;46.510;6.498;2022-08-02T02:41:32;97342.06;;;24.20;47.03
45937;BME280;31649;46.510;6.498;2022-08-02T02:44:01;97345.47;;;24.07;47.05
45937;BME280;31649;46.510;6.498;2022-08-02T02:46:29;97337.22;;;23.88;47.37
45937;BME280;31649;46.510;6.498;2022-08-02T02:48:55;97341.72;;;23.52;48.28
45937;BME280;31649;46.510;6.498;2022-08-02T02:51:22;97348.53;;;23.61;48.17
45937;BME280;31649;46.510;6.498;2022-08-02T02:53:49;97345.47;;;23.58;48.30
45937;BME280;31649;46.510;6.498;2022-08-02T02:56:19;97339.50;;;23.98;47.40
45937;BME280;31649;46.510;6.498;2022-08-02T02:58:45;97340.75;;;23.95;47.39
45937;BME280;31649;46.510;6.498;2022-08-02T03:01:11;97342.44;;;24.10;46.92
45937;BME280;31649;46.510;6.498;2022-08-02T03:03:58;97344.16;;;24.31;46.67
45937;BME280;31649;46.510;6.498;2022-08-02T03:06:25;97346.44;;;24.48;46.39
45937;BME280;31649;46.510;6.498;2022-08-02T03:08:50;97336.50;;;24.08;47.20
45937;BME280;31649;46.510;6.498;2022-08-02T03:11:16;97336.97;;;24.25;47.11
45937;BME280;31649;46.510;6.498;2022-08-02T03:13:42;97343.13;;;24.26;47.05
45937;BME280;31649;46.510;6.498;2022-08-02T03:16:09;97343.53;;;24.29;47.13
45937;BME280;31649;46.510;6.498;2022-08-02T03:18:37;97340.94;;;24.43;46.62
45937;BME280;31649;46.510;6.498;2022-08-02T03:21:05;97341.13;;;24.48;46.64
45937;BME280;31649;46.510;6.498;2022-08-02T03:23:32;97335.16;;;24.26;47.50
45937;BME280;31649;46.510;6.498;2022-08-02T03:25:58;97327.78;;;24.28;47.47
45937;BME280;31649;46.510;6.498;2022-08-02T03:28:24;97334.41;;;24.45;47.09
45937;BME280;31649;46.510;6.498;2022-08-02T03:30:49;97331.97;;;24.64;46.67
45937;BME280;31649;46.510;6.498;2022-08-02T03:33:15;97334.00;;;24.76;46.19
45937;BME280;31649;46.510;6.498;2022-08-02T03:35:42;97337.69;;;24.81;46.39
45937;BME280;31649;46.510;6.498;2022-08-02T03:38:11;97337.91;;;24.87;46.12
45937;BME280;31649;46.510;6.498;2022-08-02T03:40:37;97336.91;;;24.81;46.40
45937;BME280;31649;46.510;6.498;2022-08-02T03:43:04;97340.34;;;24.81;46.42
45937;BME280;31649;46.510;6.498;2022-08-02T03:45:30;97333.59;;;24.72;46.44
45937;BME280;31649;46.510;6.498;2022-08-02T03:47:56;97335.88;;;24.06;48.15
45937;BME280;31649;46.510;6.498;2022-08-02T03:50:23;97329.66;;;24.34;47.47
45937;BME280;31649;46.510;6.498;2022-08-02T03:52:50;97339.72;;;24.45;47.54
45937;BME280;31649;46.510;6.498;2022-08-02T03:55:16;97335.22;;;24.60;47.16
45937;BME280;31649;46.510;6.498;2022-08-02T03:57:42;97331.56;;;24.67;47.21
45937;BME280;31649;46.510;6.498;2022-08-02T04:00:09;97334.03;;;24.83;46.62
45937;BME280;31649;46.510;6.498;2022-08-02T04:02:35;97333.00;;;24.84;46.56
45937;BME280;31649;46.510;6.498;2022-08-02T04:05:02;97339.94;;;24.64;47.00
45937;BME280;31649;46.510;6.498;2022-08-02T04:07:28;97334.81;;;24.69;47.31
45937;BME280;31649;46.510;6.498;2022-08-02T04:09:54;97338.94;;;24.72;47.28
45937;BME280;31649;46.510;6.498;2022-08-02T04:12:21;97331.56;;;24.74;47.49
45937;BME280;31649;46.510;6.498;2022-08-02T04:14:47;97332.78;;;24.78;47.47
45937;BME280;31649;46.510;6.498;2022-08-02T04:17:14;97329.72;;;24.75;47.83
45937;BME280;31649;46.510;6.498;2022-08-02T04:20:19;97328.06;;;24.74;47.79
45937;BME280;31649;46.510;6.498;2022-08-02T04:22:59;97322.53;;;24.62;48.32
45937;BME280;31649;46.510;6.498;2022-08-02T04:25:26;97326.44;;;24.73;47.97
45937;BME280;31649;46.510;6.498;2022-08-02T04:27:53;97328.88;;;24.67;48.15
45937;BME280;31649;46.510;6.498;2022-08-02T04:30:20;97326.88;;;24.76;48.02
45937;BME280;31649;46.510;6.498;2022-08-02T04:32:46;97336.88;;;24.74;47.90
45937;BME280;31649;46.510;6.498;2022-08-02T04:35:12;97335.44;;;24.72;48.12
45937;BME280;31649;46.510;6.498;2022-08-02T04:37:41;97331.09;;;24.50;48.53
45937;BME280;31649;46.510;6.498;2022-08-02T04:40:11;97332.56;;;24.60;48.30
45937;BME280;31649;46.510;6.498;2022-08-02T04:42:43;97326.03;;;24.06;49.56
45937;BME280;31649;46.510;6.498;2022-08-02T04:45:12;97323.28;;;23.79;50.41
45937;BME280;31649;46.510;6.498;2022-08-02T04:47:41;97335.34;;;23.17;52.21
45937;BME280;31649;46.510;6.498;2022-08-02T04:50:12;97330.28;;;22.94;52.87
45937;BME280;31649;46.510;6.498;2022-08-02T04:52:41;97334.81;;;23.00;52.81
45937;BME280;31649;46.510;6.498;2022-08-02T04:55:10;97341.97;;;23.28;51.92
45937;BME280;31649;46.510;6.498;2022-08-02T04:57:39;97343.78;;;22.99;52.83
45937;BME280;31649;46.510;6.498;2022-08-02T05:00:28;97350.72;;;22.56;53.97
45937;BME280;31649;46.510;6.498;2022-08-02T05:03:01;97354.84;;;22.81;53.11
45937;BME280;31649;46.510;6.498;2022-08-02T05:05:31;97357.81;;;22.93;53.02
45937;BME280;31649;46.510;6.498;2022-08-02T05:08:02;97355.69;;;23.32;51.78
45937;BME280;31649;46.510;6.498;2022-08-02T05:10:31;97349.47;;;23.82;50.47
45937;BME280;31649;46.510;6.498;2022-08-02T05:13:05;97356.91;;;24.00;49.77
45937;BME280;31649;46.510;6.498;2022-08-02T05:15:38;97359.13;;;23.97;50.01
45937;BME280;31649;46.510;6.498;2022-08-02T05:18:09;97362.66;;;23.62;51.06
45937;BME280;31649;46.510;6.498;2022-08-02T05:20:40;97361.47;;;23.71;51.04
45937;BME280;31649;46.510;6.498;2022-08-02T05:23:13;97354.81;;;23.89;50.51
45937;BME280;31649;46.510;6.498;2022-08-02T05:25:47;97359.50;;;24.36;49.42
45937;BME280;31649;46.510;6.498;2022-08-02T05:28:22;97361.41;;;24.63;48.71
45937;BME280;31649;46.510;6.498;2022-08-02T05:30:57;97364.50;;;24.60;48.70
45937;BME280;31649;46.510;6.498;2022-08-02T05:33:31;97364.25;;;24.54;48.76
45937;BME280;31649;46.510;6.498;2022-08-02T05:36:06;97360.31;;;24.30;49.39
45937;BME280;31649;46.510;6.498;2022-08-02T05:38:39;97360.72;;;24.33;49.37
45937;BME280;31649;46.510;6.498;2022-08-02T05:41:11;97365.41;;;24.31;49.46
45937;BME280;31649;46.510;6.498;2022-08-02T05:43:43;97370.06;;;24.16;50.08
45937;BME280;31649;46.510;6.498;2022-08-02T05:46:19;97372.59;;;24.31;49.62
45937;BME280;31649;46.510;6.498;2022-08-02T05:48:56;97361.72;;;24.26;49.93
45937;BME280;31649;46.510;6.498;2022-08-02T05:51:51;97358.59;;;24.15;50.48
45937;BME280;31649;46.510;6.498;2022-08-02T06:05:58;97369.50;;;24.27;50.33
45937;BME280;31649;46.510;6.498;2022-08-02T06:08:43;97368.28;;;24.30;50.31
45937;BME280;31649;46.510;6.498;2022-08-02T06:11:33;97365.53;;;24.09;50.86
45937;BME280;31649;46.510;6.498;2022-08-02T06:14:05;97367.69;;;24.34;50.35
45937;BME280;31649;46.510;6.498;2022-08-02T06:16:31;97372.41;;;24.39;50.26
45937;BME280;31649;46.510;6.498;2022-08-02T06:18:58;97366.09;;;24.47;50.20
45937;BME280;31649;46.510;6.498;2022-08-02T06:21:25;97371.28;;;24.20;50.96
45937;BME280;31649;46.510;6.498;2022-08-02T06:23:50;97367.13;;;24.53;50.18
45937;BME280;31649;46.510;6.498;2022-08-02T06:26:17;97362.81;;;24.45;50.35
45937;BME280;31649;46.510;6.498;2022-08-02T06:28:44;97367.34;;;24.58;49.98
45937;BME280;31649;46.510;6.498;2022-08-02T06:31:11;97366.13;;;24.67;49.75
45937;BME280;31649;46.510;6.498;2022-08-02T06:33:38;97361.66;;;24.75;49.60
45937;BME280;31649;46.510;6.498;2022-08-02T06:38:42;97364.72;;;24.92;49.40
45937;BME280;31649;46.510;6.498;2022-08-02T06:41:11;97366.22;;;25.01;49.15
45937;BME280;31649;46.510;6.498;2022-08-02T06:43:53;97369.63;;;24.81;49.65
45937;BME280;31649;46.510;6.498;2022-08-02T06:46:20;97364.88;;;24.50;49.76
45937;BME280;31649;46.510;6.498;2022-08-02T06:48:46;97366.16;;;24.74;49.69
45937;BME280;31649;46.510;6.498;2022-08-02T06:51:12;97371.91;;;24.91;49.13
45937;BME280;31649;46.510;6.498;2022-08-02T06:53:38;97366.22;;;25.01;49.18
45937;BME280;31649;46.510;6.498;2022-08-02T06:56:04;97368.59;;;24.69;49.71
45937;BME280;31649;46.510;6.498;2022-08-02T06:58:29;97368.00;;;24.87;49.47
45937;BME280;31649;46.510;6.498;2022-08-02T07:00:55;97364.97;;;24.97;49.39
45937;BME280;31649;46.510;6.498;2022-08-02T07:03:21;97367.19;;;24.93;49.22
45937;BME280;31649;46.510;6.498;2022-08-02T07:05:46;97367.44;;;25.06;49.05
45937;BME280;31649;46.510;6.498;2022-08-02T07:08:15;97370.50;;;25.02;49.42
45937;BME280;31649;46.510;6.498;2022-08-02T07:10:40;97374.19;;;25.15;49.00
45937;BME280;31649;46.510;6.498;2022-08-02T07:13:06;97371.13;;;24.98;49.22
45937;BME280;31649;46.510;6.498;2022-08-02T07:15:31;97367.00;;;24.95;48.99
45937;BME280;31649;46.510;6.498;2022-08-02T07:17:57;97368.63;;;24.89;48.75
45937;BME280;31649;46.510;6.498;2022-08-02T07:20:22;97368.22;;;24.92;49.31
45937;BME280;31649;46.510;6.498;2022-08-02T07:22:48;97379.91;;;24.98;49.26
45937;BME280;31649;46.510;6.498;2022-08-02T07:25:13;97374.19;;;25.15;48.90
45937;BME280;31649;46.510;6.498;2022-08-02T07:27:38;97372.34;;;25.15;48.99
45937;BME280;31649;46.510;6.498;2022-08-02T07:30:04;97373.16;;;25.09;49.05
45937;BME280;31649;46.510;6.498;2022-08-02T07:32:30;97366.63;;;25.19;48.98
45937;BME280;31649;46.510;6.498;2022-08-02T07:34:56;97377.28;;;25.19;48.92
45937;BME280;31649;46.510;6.498;2022-08-02T07:37:27;97368.47;;;25.25;48.74
45937;BME280;31649;46.510;6.498;2022-08-02T07:39:53;97373.97;;;25.30;48.87
45937;BME280;31649;46.510;6.498;2022-08-02T07:42:19;97371.94;;;25.39;48.99
45937;BME280;31649;46.510;6.498;2022-08-02T07:44:44;97362.91;;;25.20;48.67
45937;BME280;31649;46.510;6.498;2022-08-02T07:47:10;97366.63;;;25.19;48.67
45937;BME280;31649;46.510;6.498;2022-08-02T07:49:36;97361.28;;;25.25;49.95
45937;BME280;31649;46.510;6.498;2022-08-02T07:52:01;97366.38;;;25.34;49.07
45937;BME280;31649;46.510;6.498;2022-08-02T07:54:27;97361.47;;;25.17;51.14
45937;BME280;31649;46.510;6.498;2022-08-02T07:56:52;97360.25;;;25.20;50.93
45937;BME280;31649;46.510;6.498;2022-08-02T07:59:19;97360.25;;;25.33;50.90
45937;BME280;31649;46.510;6.498;2022-08-02T08:01:44;97364.38;;;25.29;51.85
45937;BME280;31649;46.510;6.498;2022-08-02T08:04:10;97363.94;;;25.32;51.66
45937;BME280;31649;46.510;6.498;2022-08-02T08:06:35;97352.50;;;25.25;52.30
45937;BME280;31649;46.510;6.498;2022-08-02T08:09:01;97348.16;;;25.17;53.08
45937;BME280;31649;46.510;6.498;2022-08-02T08:11:26;97358.22;;;25.22;52.97
45937;BME280;31649;46.510;6.498;2022-08-02T08:13:52;97344.91;;;25.22;52.54
45937;BME280;31649;46.510;6.498;2022-08-02T08:16:17;97346.53;;;25.30;52.52
45937;BME280;31649;46.510;6.498;2022-08-02T08:18:43;97353.91;;;25.34;52.53
45937;BME280;31649;46.510;6.498;2022-08-02T08:21:09;97350.63;;;25.32;52.93
45937;BME280;31649;46.510;6.498;2022-08-02T08:23:35;97346.69;;;25.48;52.53
45937;BME280;31649;46.510;6.498;2022-08-02T08:26:01;97346.69;;;25.55;52.29
45937;BME280;31649;46.510;6.498;2022-08-02T08:28:26;97336.44;;;25.59;51.72
45937;BME280;31649;46.510;6.498;2022-08-02T08:30:52;97337.03;;;25.68;51.92
45937;BME280;31649;46.510;6.498;2022-08-02T08:33:17;97338.88;;;25.74;51.70
45937;BME280;31649;46.510;6.498;2022-08-02T08:35:43;97347.09;;;25.79;51.35
45937;BME280;31649;46.510;6.498;2022-08-02T08:38:08;97342.13;;;25.90;51.31
45937;BME280;31649;46.510;6.498;2022-08-02T08:40:34;97343.34;;;25.94;52.10
45937;BME280;31649;46.510;6.498;2022-08-02T08:42:59;97333.69;;;25.93;51.15
45937;BME280;31649;46.510;6.498;2022-08-02T08:45:25;97329.19;;;26.00;51.17
45937;BME280;31649;46.510;6.498;2022-08-02T08:47:54;97323.41;;;26.03;50.91
45937;BME280;31649;46.510;6.498;2022-08-02T08:50:23;97320.34;;;26.06;51.05
45937;BME280;31649;46.510;6.498;2022-08-02T08:53:08;97330.75;;;26.15;50.57
45937;BME280;31649;46.510;6.498;2022-08-02T08:55:35;97329.69;;;26.23;50.95
45937;BME280;31649;46.510;6.498;2022-08-02T08:58:01;97331.28;;;26.30;51.09
45937;BME280;31649;46.510;6.498;2022-08-02T09:00:32;97328.59;;;26.30;51.39
45937;BME280;31649;46.510;6.498;2022-08-02T09:02:58;97331.66;;;26.34;50.41
45937;BME280;31649;46.510;6.498;2022-08-02T09:05:26;97328.38;;;26.32;50.10
45937;BME280;31649;46.510;6.498;2022-08-02T09:07:51;97326.13;;;26.36;49.85
45937;BME280;31649;46.510;6.498;2022-08-02T09:13:16;97337.81;;;26.41;50.16
45937;BME280;31649;46.510;6.498;2022-08-02T09:15:44;97331.63;;;26.48;50.08
45937;BME280;31649;46.510;6.498;2022-08-02T09:18:11;97334.94;;;26.43;50.03
45937;BME280;31649;46.510;6.498;2022-08-02T09:20:57;97338.41;;;26.43;50.66
45937;BME280;31649;46.510;6.498;2022-08-02T09:23:23;97333.84;;;26.51;50.70
45937;BME280;31649;46.510;6.498;2022-08-02T09:26:10;97329.78;;;26.48;51.09
45937;BME280;31649;46.510;6.498;2022-08-02T09:28:38;97337.31;;;26.58;51.00
45937;BME280;31649;46.510;6.498;2022-08-02T09:33:30;97334.75;;;26.70;50.23
45937;BME280;31649;46.510;6.498;2022-08-02T09:36:08;97338.63;;;26.74;49.73
45937;BME280;31649;46.510;6.498;2022-08-02T09:38:35;97336.34;;;26.78;50.55
45937;BME280;31649;46.510;6.498;2022-08-02T09:41:02;97335.72;;;26.76;50.31
45937;BME280;31649;46.510;6.498;2022-08-02T09:43:36;97332.88;;;26.77;49.66
45937;BME280;31649;46.510;6.498;2022-08-02T09:46:20;97333.50;;;26.73;49.63
45937;BME280;31649;46.510;6.498;2022-08-02T09:51:20;97324.00;;;26.84;48.66
45937;BME280;31649;46.510;6.498;2022-08-02T09:53:47;97330.53;;;26.88;48.75
45937;BME280;31649;46.510;6.498;2022-08-02T09:56:13;97330.31;;;26.89;48.80
45937;BME280;31649;46.510;6.498;2022-08-02T09:58:38;97322.44;;;26.95;48.72
45937;BME280;31649;46.510;6.498;2022-08-02T10:01:04;97324.00;;;26.84;49.26
45937;BME280;31649;46.510;6.498;2022-08-02T10:03:30;97316.31;;;26.94;48.99
45937;BME280;31649;46.510;6.498;2022-08-02T10:05:56;97315.63;;;26.99;47.45
45937;BME280;31649;46.510;6.498;2022-08-02T10:08:30;97316.41;;;27.06;47.51
45937;BME280;31649;46.510;6.498;2022-08-02T10:10:55;97320.91;;;27.12;47.35
45937;BME280;31649;46.510;6.498;2022-08-02T10:13:32;97306.91;;;27.17;47.77
45937;BME280;31649;46.510;6.498;2022-08-02T10:15:59;97300.50;;;27.18;48.78
45937;BME280;31649;46.510;6.498;2022-08-02T10:18:26;97301.66;;;27.29;47.90
45937;BME280;31649;46.510;6.498;2022-08-02T10:20:53;97292.75;;;27.35;46.96
45937;BME280;31649;46.510;6.498;2022-08-02T10:23:21;97290.59;;;27.44;47.21
45937;BME280;31649;46.510;6.498;2022-08-02T10:25:50;97288.97;;;27.43;47.60
45937;BME280;31649;46.510;6.498;2022-08-02T10:28:19;97289.47;;;27.33;47.64
45937;BME280;31649;46.510;6.498;2022-08-02T10:30:52;97280.66;;;27.33;47.71
45937;BME280;31649;46.510;6.498;2022-08-02T10:33:19;97272.69;;;27.45;47.74
45937;BME280;31649;46.510;6.498;2022-08-02T10:35:49;97277.97;;;27.52;47.66
45937;BME280;31649;46.510;6.498;2022-08-02T10:38:17;97272.03;;;27.68;47.27
45937;BME280;31649;46.510;6.498;2022-08-02T10:46:23;97274.88;;;27.92;46.47
45937;BME280;31649;46.510;6.498;2022-08-02T10:49:12;97262.44;;;27.98;46.67
45937;BME280;31649;46.510;6.498;2022-08-02T10:54:35;97260.75;;;28.16;45.60
45937;BME280;31649;46.510;6.498;2022-08-02T10:57:02;97264.72;;;28.13;46.23
45937;BME280;31649;46.510;6.498;2022-08-02T10:59:30;97264.84;;;28.19;46.46
45937;BME280;31649;46.510;6.498;2022-08-02T11:01:57;97260.56;;;28.30;45.72
45937;BME280;31649;46.510;6.498;2022-08-02T11:07:34;97258.09;;;28.47;45.35
45937;BME280;31649;46.510;6.498;2022-08-02T11:15:48;97248.69;;;28.80;44.00
45937;BME280;31649;46.510;6.498;2022-08-02T11:18:14;97239.25;;;28.78;44.19
45937;BME280;31649;46.510;6.498;2022-08-02T11:20:40;97242.38;;;28.74;44.24
45937;BME280;31649;46.510;6.498;2022-08-02T11:25:58;97244.03;;;28.88;43.86
45937;BME280;31649;46.510;6.498;2022-08-02T11:28:24;97243.56;;;29.15;44.03
45937;BME280;31649;46.510;6.498;2022-08-02T12:24:36;97195.03;;;31.42;37.93
45937;BME280;31649;46.510;6.498;2022-08-02T12:27:02;97209.19;;;31.55;36.93
45937;BME280;31649;46.510;6.498;2022-08-02T12:29:33;97207.59;;;31.36;36.59
45937;BME280;31649;46.510;6.498;2022-08-02T12:31:59;97199.75;;;31.80;34.83
45937;BME280;31649;46.510;6.498;2022-08-02T12:34:27;97203.91;;;31.65;36.76
45937;BME280;31649;46.510;6.498;2022-08-02T12:37:01;97197.84;;;31.75;36.64
45937;BME280;31649;46.510;6.498;2022-08-02T12:42:03;97199.56;;;31.86;37.72
45937;BME280;31649;46.510;6.498;2022-08-02T12:44:29;97195.47;;;31.79;36.92
45937;BME280;31649;46.510;6.498;2022-08-02T12:47:02;97185.66;;;31.95;36.80
45937;BME280;31649;46.510;6.498;2022-08-02T12:49:29;97189.09;;;31.90;38.35
45937;BME280;31649;46.510;6.498;2022-08-02T12:51:55;97192.25;;;32.04;39.49
45937;BME280;31649;46.510;6.498;2022-08-02T12:54:29;97191.13;;;32.33;41.95
45937;BME280;31649;46.510;6.498;2022-08-02T12:56:56;97187.59;;;32.32;41.69
45937;BME280;31649;46.510;6.498;2022-08-02T12:59:33;97183.91;;;32.06;40.71
45937;BME280;31649;46.510;6.498;2022-08-02T13:02:08;97186.47;;;32.23;40.95
45937;BME280;31649;46.510;6.498;2022-08-02T13:04:38;97173.44;;;32.09;38.95
45937;BME280;31649;46.510;6.498;2022-08-02T13:07:04;97182.88;;;31.84;37.13
45937;BME280;31649;46.510;6.498;2022-08-02T13:09:35;97177.78;;;32.16;38.60
45937;BME280;31649;46.510;6.498;2022-08-02T13:12:02;97176.09;;;32.42;37.12
45937;BME280;31649;46.510;6.498;2022-08-02T13:14:28;97177.78;;;32.92;36.98
45937;BME280;31649;46.510;6.498;2022-08-02T13:16:54;97174.94;;;33.20;35.85
45937;BME280;31649;46.510;6.498;2022-08-02T13:19:20;97174.88;;;33.09;32.84
45937;BME280;31649;46.510;6.498;2022-08-02T13:21:46;97171.50;;;33.30;33.23
45937;BME280;31649;46.510;6.498;2022-08-02T13:24:12;97173.34;;;33.19;30.30
45937;BME280;31649;46.510;6.498;2022-08-02T13:26:41;97168.53;;;33.36;28.09
45937;BME280;31649;46.510;6.498;2022-08-02T13:29:06;97166.53;;;34.01;28.97
45937;BME280;31649;46.510;6.498;2022-08-02T13:31:32;97169.75;;;34.14;29.88
45937;BME280;31649;46.510;6.498;2022-08-02T13:33:59;97163.03;;;33.96;33.52
45937;BME280;31649;46.510;6.498;2022-08-02T13:36:24;97160.31;;;33.80;32.93
45937;BME280;31649;46.510;6.498;2022-08-02T13:38:50;97156.47;;;33.55;33.79
45937;BME280;31649;46.510;6.498;2022-08-02T13:41:15;97152.97;;;33.70;32.42
45937;BME280;31649;46.510;6.498;2022-08-02T13:43:40;97161.66;;;33.88;33.08
45937;BME280;31649;46.510;6.498;2022-08-02T13:46:06;97155.47;;;34.03;32.30
45937;BME280;31649;46.510;6.498;2022-08-02T13:48:32;97152.75;;;34.08;30.97
45937;BME280;31649;46.510;6.498;2022-08-02T13:50:58;97155.44;;;34.66;30.85
45937;BME280;31649;46.510;6.498;2022-08-02T13:53:23;97151.94;;;34.49;31.68
45937;BME280;31649;46.510;6.498;2022-08-02T13:55:49;97145.75;;;34.44;31.38
45937;BME280;31649;46.510;6.498;2022-08-02T13:58:15;97147.88;;;34.68;30.39
45937;BME280;31649;46.510;6.498;2022-08-02T14:00:40;97139.75;;;34.68;29.99
45937;BME280;31649;46.510;6.498;2022-08-02T14:03:06;97153.44;;;34.97;30.22
45937;BME280;31649;46.510;6.498;2022-08-02T14:05:36;97149.72;;;34.88;28.54
45937;BME280;31649;46.510;6.498;2022-08-02T14:08:01;97142.34;;;35.04;27.86
45937;BME280;31649;46.510;6.498;2022-08-02T14:10:27;97141.31;;;34.95;26.40
45937;BME280;31649;46.510;6.498;2022-08-02T14:12:52;97136.50;;;34.81;25.23
45937;BME280;31649;46.510;6.498;2022-08-02T14:15:18;97132.47;;;35.40;26.22
45937;BME280;31649;46.510;6.498;2022-08-02T14:17:43;97140.03;;;35.43;25.83
45937;BME280;31649;46.510;6.498;2022-08-02T14:20:09;97140.53;;;35.50;26.06
45937;BME280;31649;46.510;6.498;2022-08-02T14:22:35;97141.44;;;35.25;26.26
45937;BME280;31649;46.510;6.498;2022-08-02T14:25:00;97133.84;;;35.37;26.50
45937;BME280;31649;46.510;6.498;2022-08-02T14:27:27;97127.66;;;35.31;27.07
45937;BME280;31649;46.510;6.498;2022-08-02T14:29:55;97134.13;;;35.36;26.50
45937;BME280;31649;46.510;6.498;2022-08-02T14:32:21;97120.63;;;35.30;26.41
45937;BME280;31649;46.510;6.498;2022-08-02T14:34:47;97129.94;;;35.54;27.12
45937;BME280;31649;46.510;6.498;2022-08-02T14:37:12;97123.16;;;35.62;27.40
45937;BME280;31649;46.510;6.498;2022-08-02T14:39:37;97115.66;;;35.88;27.52
45937;BME280;31649;46.510;6.498;2022-08-02T14:42:03;97113.94;;;35.63;28.48
45937;BME280;31649;46.510;6.498;2022-08-02T14:44:29;97122.63;;;35.60;27.48
45937;BME280;31649;46.510;6.498;2022-08-02T14:46:54;97122.91;;;35.02;29.20
45937;BME280;31649;46.510;6.498;2022-08-02T14:49:20;97116.28;;;35.35;29.55
45937;BME280;31649;46.510;6.498;2022-08-02T14:51:46;97119.47;;;35.42;28.50
45937;BME280;31649;46.510;6.498;2022-08-02T14:54:11;97117.22;;;35.54;28.09
45937;BME280;31649;46.510;6.498;2022-08-02T14:56:37;97116.91;;;36.01;28.95
45937;BME280;31649;46.510;6.498;2022-08-02T14:59:03;97118.00;;;36.00;28.04